Flight Track Log - Related Links

Times and Time Zones

All times are in EDT time to prevent confusion due to time zone crossing. See the GLA65P flight status page for this flight to view local times or setup timezone preferences in your user account.

Time Position Orientation Groundspeed Altitude Reporting Facility
EDT Latitude Longitude Course Direction KTS MPH feet Rate Location/Type
Tue 04:55:29 PM 34.6881 -112.4850 344° North 190 219 7,800  Level Los Angeles Center
Tue 04:56:31 PM 34.7300 -112.5108 333° Northwest 199 229 9,700 1,909 Climbing Los Angeles Center
Tue 04:57:41 PM 34.7128 -112.5847 254° West 190 219 12,000 1,727 Climbing Albuquerque Center
Tue 04:58:43 PM 34.7069 -112.6492 264° West 195 224 13,500 1,415 Climbing Albuquerque Center
Tue 04:59:44 PM 34.7114 -112.7183 274° West 204 235 14,900 1,317 Climbing Albuquerque Center
Tue 05:00:46 PM 34.7131 -112.7906 272° West 210 242 16,200 1,355 Climbing Albuquerque Center
Tue 05:01:48 PM 34.7156 -112.8786 272° West 216 249 17,700 1,161 Climbing Albuquerque Center
Tue 05:02:50 PM 34.7172 -112.9522 272° West 219 252 18,600 871 Climbing Albuquerque Center
Tue 05:03:52 PM 34.7150 -113.0267 268° West 221 254 19,500 634 Climbing Albuquerque Center
Tue 05:04:53 PM 34.7056 -113.1072 262° West 235 270 19,900 195 Climbing Albuquerque Center
Tue 05:05:55 PM 34.7128 -113.1936 276° West 258 297 19,900 48 Level Albuquerque Center
Tue 05:06:57 PM 34.7261 -113.2789 281° West 259 298 20,000 49 Climbing Albuquerque Center
Tue 05:07:58 PM 34.7333 -113.3658 276° West 259 298 20,000 -49 Level Albuquerque Center
Tue 05:09:00 PM 34.7331 -113.4725 270° West 262 302 19,900 -48 Descending Albuquerque Center
Tue 05:10:02 PM 34.7361 -113.5619 272° West 265 305 19,900  Level Albuquerque Center
Tue 05:11:04 PM 34.7406 -113.6514 273° West 266 306 19,900  Level Albuquerque Center
Tue 05:12:05 PM 34.7439 -113.7383 273° West 262 302 19,900  Level Albuquerque Center
Tue 05:13:07 PM 34.7439 -113.8275 270° West 264 304 19,900  Level Albuquerque Center
Tue 05:14:09 PM 34.7467 -113.9150 272° West 262 302 19,900  Level Albuquerque Center
Tue 05:15:11 PM 34.7436 -114.0169 268° West 261 300 19,900  Level Albuquerque Center
Tue 05:16:11 PM 34.7203 -114.0797 246° West 258 297 19,900  Level Los Angeles Center
Tue 05:17:13 PM 34.6822 -114.1750 244° Southwest 259 298 19,900  Level Los Angeles Center
Tue 05:19:17 PM 34.6108 -114.3417 243° Southwest 263 303 19,900  Level Los Angeles Center
Tue 05:20:20 PM 34.5769 -114.4208 243° Southwest 266 306 19,900  Level Los Angeles Center
Tue 05:21:22 PM 34.5458 -114.4994 244° Southwest 261 300 19,900  Level Los Angeles Center
Tue 05:22:24 PM 34.5147 -114.5797 245° Southwest 263 303 19,900  Level Los Angeles Center
Tue 05:23:26 PM 34.4839 -114.6703 248° West 263 303 19,900  Level Los Angeles Center
Tue 05:24:28 PM 34.4583 -114.7511 249° West 260 299 19,900  Level Los Angeles Center
Tue 05:25:30 PM 34.4317 -114.8339 249° West 261 300 19,900  Level Los Angeles Center
Tue 05:26:32 PM 34.4069 -114.9147 250° West 259 298 19,900  Level Los Angeles Center
Tue 05:27:34 PM 34.3772 -115.0111 250° West 257 296 19,900  Level Los Angeles Center
Tue 05:28:36 PM 34.3506 -115.0922 248° West 259 298 19,900  Level Los Angeles Center
Tue 05:29:38 PM 34.3194 -115.1686 244° Southwest 256 295 19,900  Level Los Angeles Center
Tue 05:30:41 PM 34.2872 -115.2483 244° Southwest 262 302 19,900  Level Los Angeles Center
Tue 05:31:43 PM 34.2589 -115.3269 246° West 257 296 19,900  Level Los Angeles Center
Tue 05:32:45 PM 34.2256 -115.4225 247° West 258 297 19,900  Level Los Angeles Center
Tue 05:33:47 PM 34.1994 -115.5011 248° West 254 292 19,900  Level Los Angeles Center
Tue 05:34:49 PM 34.1744 -115.5814 249° West 255 293 19,900 48 Level Los Angeles Center
Tue 05:35:51 PM 34.1453 -115.6592 246° West 255 293 20,000  Climbing Los Angeles Center
Tue 05:36:53 PM 34.1139 -115.7369 244° Southwest 258 297 19,900 -48 Descending Los Angeles Center
Tue 05:37:56 PM 34.0825 -115.8153 244° Southwest 261 300 19,900  Level Los Angeles Center
Tue 05:38:57 PM 34.0458 -115.9072 244° Southwest 256 295 19,900  Level Los Angeles Center
Tue 05:39:59 PM 34.0169 -115.9858 246° West 257 296 19,900 -336 Level Los Angeles Center
Tue 05:41:02 PM 33.9908 -116.0647 248° West 255 293 19,200 -774 Descending Los Angeles Center
Tue 05:42:03 PM 33.9647 -116.1469 249° West 261 300 18,300 -1,073 Descending Los Angeles Center
Tue 05:43:05 PM 33.9403 -116.2294 250° West 263 303 17,000 -1,113 Descending Los Angeles Center
Tue 05:44:07 PM 33.9131 -116.3081 247° West 259 298 16,000 -353 Descending Los Angeles Center
Tue 05:46:12 PM 33.8758 -116.4736 255° West 236 272 15,900 -257 Descending Los Angeles Center
Tue 05:47:14 PM 33.8750 -116.5531 269° West 237 273 15,200 -823 Descending Los Angeles Center
Tue 05:48:16 PM 33.8778 -116.6336 272° West 240 276 14,200 -629 Descending Los Angeles Center
Tue 05:49:18 PM 33.8811 -116.7100 273° West 234 269 13,900 -145 Descending Los Angeles Center
Tue 05:50:20 PM 33.8886 -116.7969 276° West 221 254 13,900 -145 Level Los Angeles Center
Tue 05:51:22 PM 33.8944 -116.8667 276° West 212 244 13,600 -525 Descending Los Angeles Center
Tue 05:51:40 PM 33.9000 -116.8833 292° West 210 242 13,200 -923 Descending Southern California TRACON
Tue 05:52:40 PM 33.9000 -116.9667 270° West 213 245 12,400 -857 Descending Southern California TRACON
Tue 05:53:46 PM 33.9000 -117.0333 270° West 209 241 11,400 -942 Descending Southern California TRACON
Tue 05:54:41 PM 33.9000 -117.1000 270° West 210 242 10,500 -835 Descending Southern California TRACON
Tue 05:55:41 PM 33.9000 -117.1667 270° West 204 235 9,800 -750 Descending Southern California TRACON
Tue 05:56:41 PM 33.9000 -117.2333 270° West 201 231 9,000 -750 Descending Southern California TRACON
Tue 05:57:41 PM 33.9000 -117.3000 270° West 192 221 8,300 -550 Descending Southern California TRACON
Tue 05:58:41 PM 33.9167 -117.3667 287° West 194 223 7,900 -150 Descending Southern California TRACON
Tue 05:59:41 PM 33.9167 -117.4333 270° West 199 229 8,000 53 Climbing Southern California TRACON
Tue 06:00:35 PM 33.9167 -117.5000 270° West 207 238 8,000 -50 Level Southern California TRACON
Tue 06:01:41 PM 33.9167 -117.5667 270° West 226 260 7,900 -50 Descending Southern California TRACON
Tue 06:02:35 PM 33.9167 -117.6333 270° West 228 262 7,900  Level Southern California TRACON
Tue 06:03:35 PM 33.9167 -117.7167 270° West 217 250 7,900  Level Southern California TRACON
Tue 06:04:35 PM 33.9333 -117.7833 287° West 216 249 7,900 -100 Level Southern California TRACON
Tue 06:05:35 PM 33.9333 -117.8500 270° West 215 247 7,700 -645 Descending Southern California TRACON
Tue 06:06:36 PM 33.9333 -117.9167 270° West 210 242 6,600 -744 Descending Southern California TRACON
Tue 06:07:36 PM 33.9500 -117.9833 287° West 207 238 6,200 -450 Descending Southern California TRACON
Tue 06:08:36 PM 33.9667 -118.0667 284° West 212 244 5,700 -700 Descending Southern California TRACON
Tue 06:09:36 PM 33.9667 -118.1333 270° West 214 246 4,800 -813 Descending Southern California TRACON
Tue 06:10:12 PM 33.9586 -118.1642 253° West 213 245 4,400 -918 Descending Los Angeles Center
Tue 06:11:14 PM 33.9533 -118.2269 264° West 198 228 3,300 -1,161 Descending Los Angeles Center
Tue 06:12:16 PM 33.9461 -118.2958 263° West 183 211 2,000 -1,161 Descending Los Angeles Center
Tue 06:13:18 PM 33.9417 -118.3442 264° West 162 186 900 -871 Descending Los Angeles Center
Tue 06:14:20 PM 33.9389 -118.3800 265° West 129 148 200 -677 Descending Los Angeles Center
Tue 06:16:00 PM 33.9333 -118.4000 270° West  Level FlightAware Approximate
Tue 06:23:00 PM 33.9425 -118.4081 270° West  Level Estimated

Login

Don't have an account? Register now (free) for customized features, flight alerts, and more!